Tampa, Florida
Current Conditions -  °F | °C
As of 9:53 PM on Saturday 25 Oct 2014 (Local Time) from KTPA Reporting Station
Clear Clear  
Wind Chill: 66°   Ceiling: Unl
Heat Index: 66°   Visibility: 10mi
Dew Point: 56°   Wind: 6mph
Humidity: 70%   Direction: 360°N
Pressure: 30"   Gusts: NA
Location:  27.95°N, 82.46°W
Report Text: KTPA 260153Z 36005KT 10SM CLR 19/13 A3000 RMK AO2 SLP159 T01890133
Loading
Personal Weather Stations






























Interactive Weather Map
Tropical Storm Tracking
New forecast layout! Learn more

10-Day Weather Forecast

Advertisements
Track Severe Weather on mobile